Terminal Aerodrome Forecast
Issued by NWS Omaha/Valley, NE

Home | Current Version | Previous Version | Text Only | Print | Product List | Glossary On
Versions: 1 2 3 4 5 6 7 8 9 10 11 12 13 14 15 16 17 18 19 20 21 22 23 24 25 26 27 28 29 30 31 32 33 34 35 36 37 38 39 40 41 42 43 44 45 46
139
FTUS43 KOAX 231040 AAC
TAFOMA
TAF AMD
KOMA 231040Z 2311/2406 14014G21KT P6SM BKN025 WS020/17038KT
     FM231300 15014G22KT P6SM OVC025 WS020/18043KT
      TEMPO 2314/2317 5SM HZ OVC015
     FM231900 16017G25KT P6SM BKN030
     FM232200 16017G25KT P6SM SCT035 BKN150
     FM240400 17012G21KT P6SM SCT020 BKN080=

USA.gov is the U.S. government's official web portal to all federal, state and local government web resources and services.